Time,TemperatureF,DewpointF,PressureIn,WindDirection,WindDirectionDegrees,WindSpeedMPH,WindSpeedGustMPH,Humidity,HourlyPrecipIn,Conditions,Clouds,dailyrainin,SoftwareType,DateUTC
2013-01-24 00:04:00,4.1,-7.8,30.11,WNW,298,2.0,6.0,57,0.00,,,0.00,Wunderground v.1.15,2013-01-24 05:04:00,
2013-01-24 00:05:00,4.1,-7.8,30.11,West,267,3.0,6.0,57,0.00,,,0.00,Wunderground v.1.15,2013-01-24 05:05:00,
2013-01-24 00:06:00,4.1,-7.8,30.11,West,267,3.0,6.0,57,0.00,,,0.00,Wunderground v.1.15,2013-01-24 05:06:00,
2013-01-24 00:12:00,4.1,-7.8,30.11,WNW,290,3.0,3.0,57,0.00,,,0.00,Wunderground v.1.15,2013-01-24 05:12:00,
2013-01-24 00:14:00,4.1,-7.8,30.11,WNW,285,3.0,3.0,57,0.00,,,0.00,Wunderground v.1.15,2013-01-24 05:14:00,
2013-01-24 00:19:00,4.1,-7.8,30.11,West,267,2.0,4.0,57,0.00,,,0.00,Wunderground v.1.15,2013-01-24 05:19:00,
2013-01-24 00:25:00,4.1,-7.8,30.11,WNW,284,3.0,7.0,57,0.00,,,0.00,Wunderground v.1.15,2013-01-24 05:25:00,
2013-01-24 00:30:00,4.2,-7.7,30.11,West,279,4.0,6.0,57,0.00,,,0.00,Wunderground v.1.15,2013-01-24 05:30:00,
2013-01-24 00:35:00,4.2,-7.7,30.11,West,277,3.0,6.0,57,0.00,,,0.00,Wunderground v.1.15,2013-01-24 05:35:00,
2013-01-24 00:41:00,4.2,-7.7,30.11,WNW,296,3.0,5.0,57,0.00,,,0.00,Wunderground v.1.15,2013-01-24 05:41:00,
2013-01-24 00:47:00,4.1,-7.8,30.11,WNW,300,3.0,5.0,57,0.00,,,0.00,Wunderground v.1.15,2013-01-24 05:47:00,
2013-01-24 00:54:00,4.1,-7.8,30.11,WNW,288,3.0,6.0,57,0.00,,,0.00,Wunderground v.1.15,2013-01-24 05:54:00,
2013-01-24 01:00:00,4.0,-7.5,30.11,WNW,288,3.0,3.0,58,0.00,,,0.00,Wunderground v.1.15,2013-01-24 06:00:00,
2013-01-24 01:05:00,4.0,-7.5,30.11,West,281,3.0,9.0,58,0.00,,,0.00,Wunderground v.1.15,2013-01-24 06:05:00,
2013-01-24 01:11:00,3.9,-7.6,30.11,WNW,299,4.0,5.0,58,0.00,,,0.00,Wunderground v.1.15,2013-01-24 06:11:00,
2013-01-24 01:16:00,3.9,-7.6,30.11,WNW,291,4.0,9.0,58,0.00,,,0.00,Wunderground v.1.15,2013-01-24 06:16:00,
2013-01-24 01:22:00,3.8,-7.7,30.11,SW,230,3.0,4.0,58,0.00,,,0.00,Wunderground v.1.15,2013-01-24 06:22:00,
2013-01-24 01:27:00,3.9,-7.6,30.11,WNW,296,3.0,5.0,58,0.00,,,0.00,Wunderground v.1.15,2013-01-24 06:27:00,
2013-01-24 01:34:00,3.9,-7.6,30.11,West,269,3.0,4.0,58,0.00,,,0.00,Wunderground v.1.15,2013-01-24 06:34:00,
2013-01-24 01:39:00,3.8,-7.7,30.11,West,276,2.0,2.0,58,0.00,,,0.00,Wunderground v.1.15,2013-01-24 06:39:00,
2013-01-24 01:45:00,3.7,-7.5,30.11,West,263,2.0,3.0,59,0.00,,,0.00,Wunderground v.1.15,2013-01-24 06:45:00,
2013-01-24 01:50:00,3.6,-7.5,30.11,West,279,2.0,5.0,59,0.00,,,0.00,Wunderground v.1.15,2013-01-24 06:50:00,
2013-01-24 01:55:00,3.5,-7.6,30.11,WNW,301,2.0,5.0,59,0.00,,,0.00,Wunderground v.1.15,2013-01-24 06:55:00,
2013-01-24 02:01:00,3.5,-7.6,30.11,WNW,290,2.0,5.0,59,0.00,,,0.00,Wunderground v.1.15,2013-01-24 07:01:00,
2013-01-24 02:07:00,3.4,-7.7,30.11,WNW,294,2.0,5.0,59,0.00,,,0.00,Wunderground v.1.15,2013-01-24 07:07:00,
2013-01-24 02:12:00,3.3,-7.5,30.11,WNW,299,2.0,2.0,60,0.00,,,0.00,Wunderground v.1.15,2013-01-24 07:12:00,
2013-01-24 02:19:00,3.2,-7.2,30.11,WNW,284,1.0,2.0,61,0.00,,,0.00,Wunderground v.1.15,2013-01-24 07:19:00,
2013-01-24 02:24:00,3.1,-7.7,30.11,NW,325,1.0,2.0,60,0.00,,,0.00,Wunderground v.1.15,2013-01-24 07:24:00,
2013-01-24 02:29:00,3.0,-7.8,30.11,WNW,292,0.0,0.0,60,0.00,,,0.00,Wunderground v.1.15,2013-01-24 07:29:00,
2013-01-24 02:35:00,2.9,-7.5,30.11,WNW,291,0.0,0.0,61,0.00,,,0.00,Wunderground v.1.15,2013-01-24 07:35:00,
2013-01-24 02:41:00,2.8,-7.3,30.11,WNW,298,0.0,0.0,62,0.00,,,0.00,Wunderground v.1.15,2013-01-24 07:41:00,
2013-01-24 02:47:00,2.6,-7.1,30.11,WNW,298,0.0,0.0,63,0.00,,,0.00,Wunderground v.1.15,2013-01-24 07:47:00,
2013-01-24 02:52:00,2.4,-7.0,30.11,North,5,0.0,1.0,64,0.00,,,0.00,Wunderground v.1.15,2013-01-24 07:52:00,
2013-01-24 02:59:00,2.3,-7.1,30.11,North,5,1.0,1.0,64,0.00,,,0.00,Wunderground v.1.15,2013-01-24 07:59:00,
2013-01-24 03:04:00,2.1,-7.3,30.11,North,5,0.0,1.0,64,0.00,,,0.00,Wunderground v.1.15,2013-01-24 08:04:00,
2013-01-24 03:10:00,1.9,-7.2,30.11,North,360,0.0,0.0,65,0.00,,,0.00,Wunderground v.1.15,2013-01-24 08:10:00,
2013-01-24 03:15:00,1.7,-7.4,30.11,North,360,0.0,0.0,65,0.00,,,0.00,Wunderground v.1.15,2013-01-24 08:15:00,
2013-01-24 03:21:00,1.5,-7.2,30.10,North,5,0.0,0.0,66,0.00,,,0.00,Wunderground v.1.15,2013-01-24 08:21:00,
2013-01-24 03:27:00,1.3,-7.4,30.10,North,5,0.0,0.0,66,0.00,,,0.00,Wunderground v.1.15,2013-01-24 08:27:00,
2013-01-24 03:32:00,1.1,-7.3,30.10,North,5,0.0,0.0,67,0.00,,,0.00,Wunderground v.1.15,2013-01-24 08:32:00,
2013-01-24 03:37:00,1.0,-7.4,30.10,North,5,0.0,0.0,67,0.00,,,0.00,Wunderground v.1.15,2013-01-24 08:37:00,
2013-01-24 03:44:00,0.7,-7.4,30.10,North,5,0.0,0.0,68,0.00,,,0.00,Wunderground v.1.15,2013-01-24 08:44:00,
2013-01-24 03:50:00,0.5,-7.3,30.10,North,5,0.0,0.0,69,0.00,,,0.00,Wunderground v.1.15,2013-01-24 08:50:00,
2013-01-24 03:55:00,0.5,-7.3,30.10,North,5,0.0,0.0,69,0.00,,,0.00,Wunderground v.1.15,2013-01-24 08:55:00,
2013-01-24 04:00:00,0.5,-7.3,30.10,North,360,0.0,0.0,69,0.00,,,0.00,Wunderground v.1.15,2013-01-24 09:00:00,
2013-01-24 04:06:00,0.3,-7.5,30.10,North,360,0.0,0.0,69,0.00,,,0.00,Wunderground v.1.15,2013-01-24 09:06:00,
2013-01-24 04:11:00,0.2,-7.3,30.10,North,360,0.0,0.0,70,0.00,,,0.00,Wunderground v.1.15,2013-01-24 09:11:00,
2013-01-24 04:16:00,0.0,-7.5,30.09,North,360,0.0,1.0,70,0.00,,,0.00,Wunderground v.1.15,2013-01-24 09:16:00,
2013-01-24 04:22:00,-0.1,-7.3,30.10,North,5,1.0,1.0,71,0.00,,,0.00,Wunderground v.1.15,2013-01-24 09:22:00,
2013-01-24 04:29:00,-0.3,-6.9,30.09,North,5,0.0,1.0,73,0.00,,,0.00,Wunderground v.1.15,2013-01-24 09:29:00,
2013-01-24 04:35:00,-0.4,-7.0,30.09,NW,319,1.0,2.0,73,0.00,,,0.00,Wunderground v.1.15,2013-01-24 09:35:00,
2013-01-24 04:41:00,-0.6,-6.9,30.09,NW,319,1.0,1.0,74,0.00,,,0.00,Wunderground v.1.15,2013-01-24 09:41:00,
2013-01-24 04:46:00,-0.7,-7.0,30.09,NW,310,1.0,1.0,74,0.00,,,0.00,Wunderground v.1.15,2013-01-24 09:46:00,
2013-01-24 04:51:00,-0.7,-7.0,30.09,WNW,300,1.0,2.0,74,0.00,,,0.00,Wunderground v.1.15,2013-01-24 09:51:00,
2013-01-24 04:57:00,-0.7,-7.0,30.09,NW,304,1.0,2.0,74,0.00,,,0.00,Wunderground v.1.15,2013-01-24 09:57:00,
2013-01-24 05:02:00,-0.3,-7.2,30.09,NNW,340,1.0,3.0,72,0.00,,,0.00,Wunderground v.1.15,2013-01-24 10:02:00,
2013-01-24 05:09:00,0.3,-7.5,30.09,WNW,297,2.0,2.0,69,0.00,,,0.00,Wunderground v.1.15,2013-01-24 10:09:00,
2013-01-24 05:14:00,0.7,-7.7,30.09,WNW,302,2.0,5.0,67,0.00,,,0.00,Wunderground v.1.15,2013-01-24 10:14:00,
2013-01-24 05:19:00,1.0,-7.7,30.09,WNW,282,2.0,3.0,66,0.00,,,0.00,Wunderground v.1.15,2013-01-24 10:19:00,
2013-01-24 05:24:00,1.1,-7.9,30.09,WNW,302,2.0,3.0,65,0.00,,,0.00,Wunderground v.1.15,2013-01-24 10:24:00,
2013-01-24 05:29:00,1.2,-7.8,30.10,NW,306,2.0,3.0,65,0.00,,,0.00,Wunderground v.1.15,2013-01-24 10:29:00,
2013-01-24 05:35:00,1.3,-8.1,30.10,NW,309,2.0,5.0,64,0.00,,,0.00,Wunderground v.1.15,2013-01-24 10:35:00,
2013-01-24 05:41:00,1.3,-8.1,30.10,NW,317,3.0,3.0,64,0.00,,,0.00,Wunderground v.1.15,2013-01-24 10:41:00,
2013-01-24 05:47:00,1.4,-8.3,30.10,West,277,3.0,4.0,63,0.00,,,0.00,Wunderground v.1.15,2013-01-24 10:47:00,
2013-01-24 05:54:00,1.5,-8.5,30.11,West,276,3.0,3.0,62,0.00,,,0.00,Wunderground v.1.15,2013-01-24 10:54:00,
2013-01-24 05:59:00,1.5,-8.5,30.11,NNW,329,2.0,2.0,62,0.00,,,0.00,Wunderground v.1.15,2013-01-24 10:59:00,
2013-01-24 06:04:00,1.5,-8.5,30.11,West,263,2.0,3.0,62,0.00,,,0.00,Wunderground v.1.15,2013-01-24 11:04:00,
2013-01-24 06:10:00,1.4,-8.3,30.11,WNW,302,2.0,2.0,63,0.00,,,0.00,Wunderground v.1.15,2013-01-24 11:10:00,
2013-01-24 06:15:00,1.3,-8.4,30.11,West,273,2.0,3.0,63,0.00,,,0.00,Wunderground v.1.15,2013-01-24 11:15:00,
2013-01-24 06:20:00,1.1,-8.6,30.11,NNW,338,2.0,2.0,63,0.00,,,0.00,Wunderground v.1.15,2013-01-24 11:20:00,
2013-01-24 06:26:00,1.1,-8.6,30.11,NNW,338,2.0,3.0,63,0.00,,,0.00,Wunderground v.1.15,2013-01-24 11:26:00,
2013-01-24 06:32:00,1.0,-8.7,30.11,WNW,286,1.0,1.0,63,0.00,,,0.00,Wunderground v.1.15,2013-01-24 11:32:00,
2013-01-24 06:37:00,0.9,-8.4,30.12,NW,309,1.0,2.0,64,0.00,,,0.00,Wunderground v.1.15,2013-01-24 11:37:00,
2013-01-24 06:44:00,0.7,-8.6,30.12,WNW,286,1.0,4.0,64,0.00,,,0.00,Wunderground v.1.15,2013-01-24 11:44:00,
2013-01-24 06:49:00,0.6,-8.4,30.12,NW,321,1.0,1.0,65,0.00,,,0.00,Wunderground v.1.15,2013-01-24 11:49:00,
2013-01-24 06:55:00,0.6,-8.4,30.12,NNW,346,1.0,3.0,65,0.00,,,0.00,Wunderground v.1.15,2013-01-24 11:55:00,
2013-01-24 07:00:00,0.6,-8.7,30.13,North,5,1.0,1.0,64,0.00,,,0.00,Wunderground v.1.15,2013-01-24 12:00:00,
2013-01-24 07:05:00,0.6,-8.7,30.13,NW,323,1.0,1.0,64,0.00,,,0.00,Wunderground v.1.15,2013-01-24 12:05:00,
2013-01-24 07:10:00,0.6,-8.7,30.12,WNW,302,1.0,2.0,64,0.00,,,0.00,Wunderground v.1.15,2013-01-24 12:10:00,
2013-01-24 07:16:00,0.5,-8.5,30.12,WNW,284,2.0,3.0,65,0.00,,,0.00,Wunderground v.1.15,2013-01-24 12:16:00,
2013-01-24 07:21:00,0.5,-8.2,30.12,WNW,294,2.0,4.0,66,0.00,,,0.00,Wunderground v.1.15,2013-01-24 12:21:00,
2013-01-24 07:26:00,0.4,-8.6,30.12,WNW,296,1.0,4.0,65,0.00,,,0.00,Wunderground v.1.15,2013-01-24 12:26:00,
2013-01-24 07:31:00,0.5,-8.2,30.12,West,267,1.0,2.0,66,0.00,,,0.00,Wunderground v.1.15,2013-01-24 12:31:00,
2013-01-24 07:36:00,0.6,-8.1,30.12,WNW,302,2.0,5.0,66,0.00,,,0.00,Wunderground v.1.15,2013-01-24 12:36:00,
2013-01-24 07:41:00,0.8,-7.9,30.12,NW,321,2.0,3.0,66,0.00,,,0.00,Wunderground v.1.15,2013-01-24 12:41:00,
2013-01-24 07:47:00,1.0,-8.0,30.13,WNW,294,2.0,5.0,65,0.00,,,0.00,Wunderground v.1.15,2013-01-24 12:47:00,
2013-01-24 07:52:00,1.2,-7.8,30.13,NW,310,2.0,3.0,65,0.00,,,0.00,Wunderground v.1.15,2013-01-24 12:52:00,
2013-01-24 07:57:00,1.3,-7.4,30.13,NW,318,1.0,3.0,66,0.00,,,0.00,Wunderground v.1.15,2013-01-24 12:57:00,
2013-01-24 08:02:00,1.4,-7.6,30.13,West,280,1.0,1.0,65,0.00,,,0.00,Wunderground v.1.15,2013-01-24 13:02:00,
2013-01-24 08:09:00,1.6,-7.8,30.13,West,269,1.0,1.0,64,0.00,,,0.00,Wunderground v.1.15,2013-01-24 13:09:00,
2013-01-24 08:15:00,1.9,-7.5,30.13,NW,325,1.0,2.0,64,0.00,,,0.00,Wunderground v.1.15,2013-01-24 13:15:00,
2013-01-24 08:20:00,2.2,-7.2,30.13,NW,322,2.0,3.0,64,0.00,,,0.00,Wunderground v.1.15,2013-01-24 13:20:00,
2013-01-24 08:26:00,2.7,-7.1,30.13,NW,322,2.0,3.0,63,0.00,,,0.00,Wunderground v.1.15,2013-01-24 13:26:00,
2013-01-24 08:31:00,3.0,-6.8,30.13,NW,318,2.0,5.0,63,0.00,,,0.00,Wunderground v.1.15,2013-01-24 13:31:00,
2013-01-24 08:37:00,3.5,-7.0,30.13,West,264,3.0,7.0,61,0.00,,,0.00,Wunderground v.1.15,2013-01-24 13:37:00,
2013-01-24 08:44:00,4.1,-7.1,30.13,NW,313,3.0,3.0,59,0.00,,,0.00,Wunderground v.1.15,2013-01-24 13:44:00,
2013-01-24 08:50:00,4.6,-7.0,30.13,West,267,3.0,9.0,58,0.00,,,0.00,Wunderground v.1.15,2013-01-24 13:50:00,
2013-01-24 08:55:00,5.0,-7.3,30.13,WNW,300,4.0,9.0,56,0.00,,,0.00,Wunderground v.1.15,2013-01-24 13:55:00,
2013-01-24 09:00:00,5.7,-6.6,30.12,NNW,329,4.0,8.0,56,0.00,,,0.00,Wunderground v.1.15,2013-01-24 14:00:00,
2013-01-24 09:06:00,6.3,-6.8,30.12,NW,307,5.0,15.0,54,0.00,,,0.00,Wunderground v.1.15,2013-01-24 14:06:00,
2013-01-24 09:11:00,6.6,-7.3,30.13,NW,315,7.0,9.0,52,0.00,,,0.00,Wunderground v.1.15,2013-01-24 14:11:00,
2013-01-24 09:16:00,6.9,-6.7,30.12,WNW,296,6.0,11.0,53,0.00,,,0.00,Wunderground v.1.15,2013-01-24 14:16:00,
2013-01-24 09:22:00,7.3,-7.1,30.12,WNW,284,6.0,8.0,51,0.00,,,0.00,Wunderground v.1.15,2013-01-24 14:22:00,
2013-01-24 09:27:00,7.4,-7.8,30.12,WNW,295,8.0,14.0,49,0.00,,,0.00,Wunderground v.1.15,2013-01-24 14:27:00,
2013-01-24 09:34:00,7.7,-6.7,30.12,North,9,7.0,9.0,51,0.00,,,0.00,Wunderground v.1.15,2013-01-24 14:34:00,
2013-01-24 09:39:00,8.2,-6.6,30.12,NW,304,5.0,9.0,50,0.00,,,0.00,Wunderground v.1.15,2013-01-24 14:39:00,
2013-01-24 09:45:00,8.4,-6.9,30.12,North,349,5.0,9.0,49,0.00,,,0.00,Wunderground v.1.15,2013-01-24 14:45:00,
2013-01-24 09:50:00,8.5,-7.2,30.12,WNW,291,6.0,8.0,48,0.00,,,0.00,Wunderground v.1.15,2013-01-24 14:50:00,
2013-01-24 09:56:00,8.8,-6.9,30.12,North,355,6.0,10.0,48,0.00,,,0.00,Wunderground v.1.15,2013-01-24 14:56:00,
2013-01-24 10:02:00,9.1,-6.2,30.12,NNE,19,5.0,5.0,49,0.00,,,0.00,Wunderground v.1.15,2013-01-24 15:02:00,
2013-01-24 10:07:00,9.4,-6.4,30.12,NNE,23,4.0,5.0,48,0.00,,,0.00,Wunderground v.1.15,2013-01-24 15:07:00,
2013-01-24 10:14:00,9.9,-5.1,30.12,WSW,252,5.0,6.0,50,0.00,,,0.00,Wunderground v.1.15,2013-01-24 15:14:00,
2013-01-24 10:19:00,9.9,-5.9,30.12,NNW,346,6.0,6.0,48,0.00,,,0.00,Wunderground v.1.15,2013-01-24 15:19:00,
2013-01-24 10:25:00,10.0,-6.3,30.12,NW,319,6.0,14.0,47,0.00,,,0.00,Wunderground v.1.15,2013-01-24 15:25:00,
2013-01-24 10:31:00,10.0,-6.3,30.12,NW,317,6.0,7.0,47,0.00,,,0.00,Wunderground v.1.15,2013-01-24 15:31:00,
2013-01-24 10:36:00,10.3,-6.0,30.12,NW,319,6.0,9.0,47,0.00,,,0.00,Wunderground v.1.15,2013-01-24 15:36:00,
2013-01-24 10:42:00,10.7,-5.2,30.12,WNW,294,5.0,5.0,48,0.00,,,0.00,Wunderground v.1.15,2013-01-24 15:42:00,
2013-01-24 10:47:00,11.1,-5.7,30.12,WNW,288,5.0,10.0,46,0.00,,,0.00,Wunderground v.1.15,2013-01-24 15:47:00,
2013-01-24 10:54:00,11.4,-5.0,30.11,West,281,6.0,9.0,47,0.00,,,0.00,Wunderground v.1.15,2013-01-24 15:54:00,
2013-01-24 11:00:00,12.0,-5.3,30.11,WNW,287,5.0,6.0,45,0.00,,,0.00,Wunderground v.1.15,2013-01-24 16:00:00,
2013-01-24 11:05:00,12.1,-5.7,30.11,NW,314,6.0,10.0,44,0.00,,,0.00,Wunderground v.1.15,2013-01-24 16:05:00,
2013-01-24 11:10:00,12.6,-4.8,30.11,WNW,286,6.0,15.0,45,0.00,,,0.00,Wunderground v.1.15,2013-01-24 16:10:00,
2013-01-24 11:15:00,12.9,-5.0,30.11,NNW,346,6.0,15.0,44,0.00,,,0.00,Wunderground v.1.15,2013-01-24 16:15:00,
2013-01-24 11:21:00,12.6,-5.2,30.10,NNE,13,5.0,7.0,44,0.00,,,0.00,Wunderground v.1.15,2013-01-24 16:21:00,
2013-01-24 11:27:00,13.1,-4.8,30.10,WNW,294,6.0,7.0,44,0.00,,,0.00,Wunderground v.1.15,2013-01-24 16:27:00,
2013-01-24 11:32:00,13.1,-5.2,30.10,NW,309,8.0,15.0,43,0.00,,,0.00,Wunderground v.1.15,2013-01-24 16:32:00,
2013-01-24 11:37:00,13.0,-4.9,30.10,WNW,302,9.0,15.0,44,0.00,,,0.00,Wunderground v.1.15,2013-01-24 16:37:00,
2013-01-24 11:44:00,12.8,-6.0,30.09,NNW,330,7.0,9.0,42,0.00,,,0.00,Wunderground v.1.15,2013-01-24 16:44:00,
2013-01-24 11:49:00,13.4,-5.0,30.10,NW,315,6.0,10.0,43,0.00,,,0.00,Wunderground v.1.15,2013-01-24 16:49:00,
2013-01-24 11:54:00,13.9,-4.0,30.09,WNW,301,6.0,10.0,44,0.00,,,0.00,Wunderground v.1.15,2013-01-24 16:54:00,
2013-01-24 12:00:00,14.2,-4.7,30.09,WSW,248,6.0,6.0,42,0.00,,,0.00,Wunderground v.1.15,2013-01-24 17:00:00,
2013-01-24 12:05:00,14.3,-4.6,30.09,NNW,345,6.0,7.0,42,0.00,,,0.00,Wunderground v.1.15,2013-01-24 17:05:00,
2013-01-24 12:11:00,14.5,-4.0,30.09,WNW,301,6.0,7.0,43,0.00,,,0.00,Wunderground v.1.15,2013-01-24 17:11:00,
2013-01-24 12:16:00,14.9,-4.1,30.09,NNW,344,6.0,8.0,42,0.00,,,0.00,Wunderground v.1.15,2013-01-24 17:16:00,
2013-01-24 12:22:00,15.2,-3.3,30.09,NE,49,5.0,6.0,43,0.00,,,0.00,Wunderground v.1.15,2013-01-24 17:22:00,
2013-01-24 12:29:00,15.7,-3.4,30.08,NNE,26,5.0,5.0,42,0.00,,,0.00,Wunderground v.1.15,2013-01-24 17:29:00,
2013-01-24 12:35:00,16.2,-3.4,30.08,NW,322,6.0,12.0,41,0.00,,,0.00,Wunderground v.1.15,2013-01-24 17:35:00,
2013-01-24 12:40:00,16.3,-3.3,30.08,WNW,290,7.0,8.0,41,0.00,,,0.00,Wunderground v.1.15,2013-01-24 17:40:00,
2013-01-24 12:45:00,16.3,-2.8,30.09,NW,305,7.0,8.0,42,0.00,,,0.00,Wunderground v.1.15,2013-01-24 17:45:00,
2013-01-24 12:50:00,16.4,-2.7,30.08,NW,307,7.0,7.0,42,0.00,,,0.00,Wunderground v.1.15,2013-01-24 17:50:00,
2013-01-24 12:56:00,17.4,-2.3,30.08,WNW,291,4.0,10.0,41,0.00,,,0.00,Wunderground v.1.15,2013-01-24 17:56:00,
2013-01-24 13:02:00,17.5,-2.8,30.08,NW,315,6.0,9.0,40,0.00,,,0.00,Wunderground v.1.15,2013-01-24 18:02:00,
2013-01-24 13:07:00,17.1,-2.6,30.08,North,355,7.0,9.0,41,0.00,,,0.00,Wunderground v.1.15,2013-01-24 18:07:00,
2013-01-24 13:14:00,17.3,-2.9,30.07,WNW,294,6.0,10.0,40,0.00,,,0.00,Wunderground v.1.15,2013-01-24 18:14:00,
2013-01-24 13:19:00,17.6,-3.2,30.07,NNW,345,6.0,6.0,39,0.00,,,0.00,Wunderground v.1.15,2013-01-24 18:19:00,
2013-01-24 13:25:00,17.2,-3.0,30.07,North,349,6.0,13.0,40,0.00,,,0.00,Wunderground v.1.15,2013-01-24 18:25:00,
2013-01-24 13:30:00,16.7,-4.0,30.07,North,9,7.0,8.0,39,0.00,,,0.00,Wunderground v.1.15,2013-01-24 18:30:00,
2013-01-24 13:37:00,17.1,-3.6,30.07,West,276,7.0,9.0,39,0.00,,,0.00,Wunderground v.1.15,2013-01-24 18:37:00,
2013-01-24 13:42:00,17.5,-2.8,30.07,NNE,28,8.0,8.0,40,0.00,,,0.00,Wunderground v.1.15,2013-01-24 18:42:00,
2013-01-24 13:49:00,18.0,-3.4,30.07,NNW,344,7.0,8.0,38,0.00,,,0.00,Wunderground v.1.15,2013-01-24 18:49:00,
2013-01-24 13:55:00,17.9,-2.9,30.07,WNW,301,8.0,12.0,39,0.00,,,0.00,Wunderground v.1.15,2013-01-24 18:55:00,
2013-01-24 14:01:00,18.3,-3.1,30.07,NW,326,7.0,18.0,38,0.00,,,0.00,Wunderground v.1.15,2013-01-24 19:01:00,
2013-01-24 14:07:00,18.1,-3.9,30.07,NW,325,8.0,20.0,37,0.00,,,0.00,Wunderground v.1.15,2013-01-24 19:07:00,
2013-01-24 14:12:00,18.0,-3.9,30.07,NW,317,7.0,12.0,37,0.00,,,0.00,Wunderground v.1.15,2013-01-24 19:12:00,
2013-01-24 14:17:00,18.4,-3.0,30.07,WNW,303,6.0,12.0,38,0.00,,,0.00,Wunderground v.1.15,2013-01-24 19:17:00,
2013-01-24 14:22:00,18.7,-3.9,30.07,WNW,290,5.0,19.0,36,0.00,,,0.00,Wunderground v.1.15,2013-01-24 19:22:00,
2013-01-24 14:29:00,18.2,-4.3,30.07,NW,314,8.0,8.0,36,0.00,,,0.00,Wunderground v.1.15,2013-01-24 19:29:00,
2013-01-24 14:35:00,18.1,-3.9,30.07,West,277,8.0,9.0,37,0.00,,,0.00,Wunderground v.1.15,2013-01-24 19:35:00,
2013-01-24 14:40:00,18.2,-3.8,30.07,NW,309,7.0,10.0,37,0.00,,,0.00,Wunderground v.1.15,2013-01-24 19:40:00,
2013-01-24 14:45:00,18.3,-3.7,30.07,West,267,8.0,10.0,37,0.00,,,0.00,Wunderground v.1.15,2013-01-24 19:45:00,
2013-01-24 14:50:00,18.5,-3.5,30.07,East,82,7.0,7.0,37,0.00,,,0.00,Wunderground v.1.15,2013-01-24 19:50:00,
2013-01-24 14:57:00,18.4,-3.0,30.07,NW,320,5.0,8.0,38,0.00,,,0.00,Wunderground v.1.15,2013-01-24 19:57:00,
2013-01-24 15:02:00,18.7,-3.3,30.07,WNW,302,5.0,6.0,37,0.00,,,0.00,Wunderground v.1.15,2013-01-24 20:02:00,
2013-01-24 15:09:00,18.3,-3.1,30.07,WNW,296,6.0,6.0,38,0.00,,,0.00,Wunderground v.1.15,2013-01-24 20:09:00,
2013-01-24 15:15:00,17.9,-3.5,30.07,NW,306,6.0,9.0,38,0.00,,,0.00,Wunderground v.1.15,2013-01-24 20:15:00,
2013-01-24 15:20:00,17.7,-2.6,30.08,West,261,7.0,7.0,40,0.00,,,0.00,Wunderground v.1.15,2013-01-24 20:20:00,
2013-01-24 15:25:00,17.7,-3.1,30.08,West,259,6.0,13.0,39,0.00,,,0.00,Wunderground v.1.15,2013-01-24 20:25:00,
2013-01-24 15:31:00,17.6,-3.2,30.08,NW,319,7.0,9.0,39,0.00,,,0.00,Wunderground v.1.15,2013-01-24 20:31:00,
2013-01-24 15:37:00,17.5,-3.3,30.08,NW,315,7.0,9.0,39,0.00,,,0.00,Wunderground v.1.15,2013-01-24 20:37:00,
2013-01-24 15:42:00,17.5,-3.3,30.08,West,275,6.0,11.0,39,0.00,,,0.00,Wunderground v.1.15,2013-01-24 20:42:00,
2013-01-24 15:49:00,17.4,-3.4,30.08,WNW,291,6.0,10.0,39,0.00,,,0.00,Wunderground v.1.15,2013-01-24 20:49:00,
2013-01-24 15:55:00,17.2,-3.6,30.09,WNW,292,6.0,13.0,39,0.00,,,0.00,Wunderground v.1.15,2013-01-24 20:55:00,
2013-01-24 16:00:00,17.0,-2.7,30.09,NW,315,6.0,8.0,41,0.00,,,0.00,Wunderground v.1.15,2013-01-24 21:00:00,
2013-01-24 16:05:00,16.7,-4.0,30.09,WNW,301,8.0,23.0,39,0.00,,,0.00,Wunderground v.1.15,2013-01-24 21:05:00,
2013-01-24 16:11:00,16.5,-4.2,30.10,WNW,288,8.0,9.0,39,0.00,,,0.00,Wunderground v.1.15,2013-01-24 21:11:00,
2013-01-24 16:16:00,16.3,-4.4,30.09,NW,306,7.0,11.0,39,0.00,,,0.00,Wunderground v.1.15,2013-01-24 21:16:00,
2013-01-24 16:22:00,16.1,-4.6,30.10,WNW,284,6.0,8.0,39,0.00,,,0.00,Wunderground v.1.15,2013-01-24 21:22:00,
2013-01-24 16:27:00,16.0,-4.6,30.10,WNW,284,7.0,15.0,39,0.00,,,0.00,Wunderground v.1.15,2013-01-24 21:27:00,
2013-01-24 16:34:00,15.8,-4.8,30.10,WNW,286,8.0,8.0,39,0.00,,,0.00,Wunderground v.1.15,2013-01-24 21:34:00,
2013-01-24 16:40:00,15.8,-5.4,30.11,WNW,298,9.0,14.0,38,0.00,,,0.00,Wunderground v.1.15,2013-01-24 21:40:00,
2013-01-24 16:45:00,15.8,-5.4,30.11,NW,312,9.0,14.0,38,0.00,,,0.00,Wunderground v.1.15,2013-01-24 21:45:00,
2013-01-24 16:50:00,15.7,-4.9,30.10,WNW,288,7.0,11.0,39,0.00,,,0.00,Wunderground v.1.15,2013-01-24 21:50:00,
2013-01-24 16:56:00,15.5,-5.1,30.11,West,271,6.0,11.0,39,0.00,,,0.00,Wunderground v.1.15,2013-01-24 21:56:00,
2013-01-24 17:01:00,15.5,-5.1,30.11,North,350,7.0,10.0,39,0.00,,,0.00,Wunderground v.1.15,2013-01-24 22:01:00,
2013-01-24 17:06:00,15.5,-5.1,30.11,North,355,8.0,12.0,39,0.00,,,0.00,Wunderground v.1.15,2013-01-24 22:06:00,
2013-01-24 17:12:00,15.5,-5.1,30.12,NW,316,7.0,8.0,39,0.00,,,0.00,Wunderground v.1.15,2013-01-24 22:12:00,
2013-01-24 17:19:00,15.2,-4.8,30.12,NE,35,4.0,4.0,40,0.00,,,0.00,Wunderground v.1.15,2013-01-24 22:19:00,
2013-01-24 17:25:00,15.1,-4.4,30.12,SSW,205,4.0,10.0,41,0.00,,,0.00,Wunderground v.1.15,2013-01-24 22:25:00,
2013-01-24 17:30:00,14.9,-4.6,30.13,NW,307,4.0,9.0,41,0.00,,,0.00,Wunderground v.1.15,2013-01-24 22:30:00,
2013-01-24 17:36:00,14.9,-4.1,30.13,NW,309,5.0,9.0,42,0.00,,,0.00,Wunderground v.1.15,2013-01-24 22:36:00,
2013-01-24 17:41:00,14.8,-4.2,30.13,WNW,284,5.0,6.0,42,0.00,,,0.00,Wunderground v.1.15,2013-01-24 22:41:00,
2013-01-24 17:46:00,14.8,-4.2,30.13,WNW,298,4.0,6.0,42,0.00,,,0.00,Wunderground v.1.15,2013-01-24 22:46:00,
2013-01-24 17:51:00,14.6,-4.4,30.13,WNW,300,4.0,6.0,42,0.00,,,0.00,Wunderground v.1.15,2013-01-24 22:51:00,
2013-01-24 17:56:00,14.6,-3.9,30.13,North,5,5.0,6.0,43,0.00,,,0.00,Wunderground v.1.15,2013-01-24 22:56:00,
2013-01-24 18:02:00,14.6,-4.4,30.13,West,275,6.0,9.0,42,0.00,,,0.00,Wunderground v.1.15,2013-01-24 23:02:00,
2013-01-24 18:07:00,14.7,-4.3,30.13,WSW,244,6.0,11.0,42,0.00,,,0.00,Wunderground v.1.15,2013-01-24 23:07:00,
2013-01-24 18:12:00,14.7,-4.3,30.13,West,279,5.0,9.0,42,0.00,,,0.00,Wunderground v.1.15,2013-01-24 23:12:00,
2013-01-24 18:19:00,14.6,-4.4,30.13,WNW,283,5.0,5.0,42,0.00,,,0.00,Wunderground v.1.15,2013-01-24 23:19:00,
2013-01-24 18:25:00,14.6,-4.4,30.14,WNW,292,5.0,6.0,42,0.00,,,0.00,Wunderground v.1.15,2013-01-24 23:25:00,
2013-01-24 18:32:00,14.4,-5.1,30.13,NW,317,6.0,13.0,41,0.00,,,0.00,Wunderground v.1.15,2013-01-24 23:32:00,
2013-01-24 18:37:00,14.4,-4.6,30.14,West,279,7.0,13.0,42,0.00,,,0.00,Wunderground v.1.15,2013-01-24 23:37:00,
2013-01-24 18:42:00,14.5,-5.5,30.14,NW,304,8.0,23.0,40,0.00,,,0.00,Wunderground v.1.15,2013-01-24 23:42:00,
2013-01-24 18:47:00,14.5,-5.0,30.14,NNW,342,9.0,23.0,41,0.00,,,0.00,Wunderground v.1.15,2013-01-24 23:47:00,
2013-01-24 18:54:00,14.4,-5.1,30.14,WNW,286,7.0,12.0,41,0.00,,,0.00,Wunderground v.1.15,2013-01-24 23:54:00,
2013-01-24 18:59:00,14.3,-5.1,30.15,WNW,292,6.0,8.0,41,0.00,,,0.00,Wunderground v.1.15,2013-01-24 23:59:00,
2013-01-24 19:04:00,14.3,-5.1,30.14,WSW,256,7.0,8.0,41,0.00,,,0.00,Wunderground v.1.15,2013-01-25 00:04:00,
2013-01-24 19:10:00,14.3,-5.7,30.15,NW,313,8.0,8.0,40,0.00,,,0.00,Wunderground v.1.15,2013-01-25 00:10:00,
2013-01-24 19:15:00,14.2,-5.2,30.15,WSW,248,7.0,8.0,41,0.00,,,0.00,Wunderground v.1.15,2013-01-25 00:15:00,
2013-01-24 19:20:00,14.0,-4.9,30.15,West,264,4.0,5.0,42,0.00,,,0.00,Wunderground v.1.15,2013-01-25 00:20:00,
2013-01-24 19:26:00,13.7,-5.2,30.16,West,271,6.0,9.0,42,0.00,,,0.00,Wunderground v.1.15,2013-01-25 00:26:00,
2013-01-24 19:32:00,13.6,-5.3,30.16,WSW,241,7.0,9.0,42,0.00,,,0.00,Wunderground v.1.15,2013-01-25 00:32:00,
2013-01-24 19:39:00,13.4,-5.5,30.16,NW,311,7.0,7.0,42,0.00,,,0.00,Wunderground v.1.15,2013-01-25 00:39:00,
2013-01-24 19:45:00,13.4,-6.0,30.15,WNW,292,8.0,11.0,41,0.00,,,0.00,Wunderground v.1.15,2013-01-25 00:45:00,
2013-01-24 19:50:00,13.3,-5.6,30.16,North,360,7.0,7.0,42,0.00,,,0.00,Wunderground v.1.15,2013-01-25 00:50:00,
2013-01-24 19:55:00,13.1,-5.7,30.16,NW,308,6.0,12.0,42,0.00,,,0.00,Wunderground v.1.15,2013-01-25 00:55:00,
2013-01-24 20:00:00,13.1,-5.7,30.16,North,5,8.0,8.0,42,0.00,,,0.00,Wunderground v.1.15,2013-01-25 01:00:00,
2013-01-24 20:05:00,12.9,-5.9,30.16,WNW,298,7.0,14.0,42,0.00,,,0.00,Wunderground v.1.15,2013-01-25 01:05:00,
2013-01-24 20:11:00,12.8,-6.0,30.16,WNW,298,7.0,9.0,42,0.00,,,0.00,Wunderground v.1.15,2013-01-25 01:11:00,
2013-01-24 20:16:00,12.6,-6.2,30.17,NNW,330,6.0,9.0,42,0.00,,,0.00,Wunderground v.1.15,2013-01-25 01:16:00,
2013-01-24 20:21:00,12.5,-5.8,30.17,North,355,7.0,7.0,43,0.00,,,0.00,Wunderground v.1.15,2013-01-25 01:21:00,
2013-01-24 20:27:00,12.4,-5.9,30.16,WNW,300,8.0,12.0,43,0.00,,,0.00,Wunderground v.1.15,2013-01-25 01:27:00,
2013-01-24 20:34:00,12.2,-6.1,30.17,NW,323,7.0,8.0,43,0.00,,,0.00,Wunderground v.1.15,2013-01-25 01:34:00,
2013-01-24 20:40:00,12.1,-5.7,30.17,West,274,6.0,6.0,44,0.00,,,0.00,Wunderground v.1.15,2013-01-25 01:40:00,
2013-01-24 20:45:00,12.0,-5.8,30.17,WNW,286,6.0,10.0,44,0.00,,,0.00,Wunderground v.1.15,2013-01-25 01:45:00,
2013-01-24 20:50:00,11.9,-5.9,30.17,North,349,5.0,5.0,44,0.00,,,0.00,Wunderground v.1.15,2013-01-25 01:50:00,
2013-01-24 20:55:00,11.8,-6.0,30.17,WNW,286,5.0,20.0,44,0.00,,,0.00,Wunderground v.1.15,2013-01-25 01:55:00,
2013-01-24 21:01:00,11.7,-6.1,30.18,SW,219,7.0,7.0,44,0.00,,,0.00,Wunderground v.1.15,2013-01-25 02:01:00,
2013-01-24 21:06:00,11.6,-6.1,30.18,WNW,303,5.0,9.0,44,0.00,,,0.00,Wunderground v.1.15,2013-01-25 02:06:00,
2013-01-24 21:11:00,11.5,-6.2,30.18,NNW,334,5.0,5.0,44,0.00,,,0.00,Wunderground v.1.15,2013-01-25 02:11:00,
2013-01-24 21:17:00,11.4,-5.9,30.18,West,265,5.0,10.0,45,0.00,,,0.00,Wunderground v.1.15,2013-01-25 02:17:00,
2013-01-24 21:24:00,11.3,-6.4,30.18,WNW,299,4.0,6.0,44,0.00,,,0.00,Wunderground v.1.15,2013-01-25 02:24:00,
2013-01-24 21:29:00,11.2,-6.5,30.18,NW,306,5.0,5.0,44,0.00,,,0.00,Wunderground v.1.15,2013-01-25 02:29:00,
2013-01-24 21:35:00,11.1,-6.1,30.18,West,281,4.0,8.0,45,0.00,,,0.00,Wunderground v.1.15,2013-01-25 02:35:00,
2013-01-24 21:42:00,11.0,-6.7,30.18,West,277,4.0,9.0,44,0.00,,,0.00,Wunderground v.1.15,2013-01-25 02:42:00,
2013-01-24 21:47:00,10.9,-6.3,30.18,WNW,290,5.0,9.0,45,0.00,,,0.00,Wunderground v.1.15,2013-01-25 02:47:00,
2013-01-24 21:52:00,10.9,-6.8,30.18,West,277,7.0,8.0,44,0.00,,,0.00,Wunderground v.1.15,2013-01-25 02:52:00,
2013-01-24 21:59:00,10.8,-6.9,30.19,WNW,302,7.0,9.0,44,0.00,,,0.00,Wunderground v.1.15,2013-01-25 02:59:00,
2013-01-24 22:04:00,10.7,-6.5,30.19,NNE,13,6.0,9.0,45,0.00,,,0.00,Wunderground v.1.15,2013-01-25 03:04:00,
2013-01-24 22:10:00,10.6,-6.6,30.19,NW,323,5.0,5.0,45,0.00,,,0.00,Wunderground v.1.15,2013-01-25 03:10:00,
2013-01-24 22:15:00,10.6,-6.6,30.19,WNW,295,6.0,9.0,45,0.00,,,0.00,Wunderground v.1.15,2013-01-25 03:15:00,
2013-01-24 22:20:00,10.4,-6.8,30.20,WNW,302,5.0,9.0,45,0.00,,,0.00,Wunderground v.1.15,2013-01-25 03:20:00,
2013-01-24 22:26:00,10.4,-6.8,30.20,WNW,287,6.0,9.0,45,0.00,,,0.00,Wunderground v.1.15,2013-01-25 03:26:00,
2013-01-24 22:32:00,10.3,-6.9,30.20,NW,317,6.0,7.0,45,0.00,,,0.00,Wunderground v.1.15,2013-01-25 03:32:00,
2013-01-24 22:37:00,10.2,-7.0,30.20,NW,310,6.0,9.0,45,0.00,,,0.00,Wunderground v.1.15,2013-01-25 03:37:00,
2013-01-24 22:42:00,10.1,-7.1,30.21,NW,325,5.0,6.0,45,0.00,,,0.00,Wunderground v.1.15,2013-01-25 03:42:00,
2013-01-24 22:47:00,10.0,-6.7,30.21,West,277,6.0,7.0,46,0.00,,,0.00,Wunderground v.1.15,2013-01-25 03:47:00,
2013-01-24 22:54:00,9.9,-6.8,30.22,WNW,284,4.0,5.0,46,0.00,,,0.00,Wunderground v.1.15,2013-01-25 03:54:00,
2013-01-24 23:00:00,9.9,-6.8,30.22,West,262,5.0,8.0,46,0.00,,,0.00,Wunderground v.1.15,2013-01-25 04:00:00,
2013-01-24 23:06:00,9.7,-7.0,30.21,WNW,288,6.0,8.0,46,0.00,,,0.00,Wunderground v.1.15,2013-01-25 04:06:00,
2013-01-24 23:12:00,9.6,-7.1,30.20,WNW,303,7.0,9.0,46,0.00,,,0.00,Wunderground v.1.15,2013-01-25 04:12:00,
2013-01-24 23:17:00,9.6,-7.1,30.20,NNE,17,8.0,11.0,46,0.00,,,0.00,Wunderground v.1.15,2013-01-25 04:17:00,
2013-01-24 23:24:00,9.5,-6.7,30.20,NW,311,8.0,12.0,47,0.00,,,0.00,Wunderground v.1.15,2013-01-25 04:24:00,
2013-01-24 23:29:00,9.4,-7.2,30.20,WNW,286,7.0,9.0,46,0.00,,,0.00,Wunderground v.1.15,2013-01-25 04:29:00,
2013-01-24 23:34:00,9.4,-7.2,30.21,WSW,252,8.0,13.0,46,0.00,,,0.00,Wunderground v.1.15,2013-01-25 04:34:00,
2013-01-24 23:40:00,9.3,-7.3,30.22,NW,307,7.0,7.0,46,0.00,,,0.00,Wunderground v.1.15,2013-01-25 04:40:00,
2013-01-24 23:46:00,9.3,-7.3,30.23,WNW,302,5.0,11.0,46,0.00,,,0.00,Wunderground v.1.15,2013-01-25 04:46:00,
2013-01-24 23:51:00,9.2,-7.4,30.22,WNW,300,5.0,8.0,46,0.00,,,0.00,Wunderground v.1.15,2013-01-25 04:51:00,
2013-01-24 23:56:00,9.1,-7.5,30.22,WNW,290,6.0,9.0,46,0.00,,,0.00,Wunderground v.1.15,2013-01-25 04:56:00,